Terminal Aerodrome Forecast
Issued by NWS

Home | Current Version | Previous Version | Text Only | Print | Product List | Glossary On
Versions: 1 2 3 4 5 6 7 8 9 10 11 12 13 14 15 16 17
000
FTUS45 KTFX 290523
TAFLWT
TAF
KLWT 290523Z 2906/3006 02008KT 6SM BR VCSH SCT010 OVC020
      TEMPO 2906/2908 5SM -SHRA BR BKN008
     FM290900 12005KT 5SM BR SCT015 OVC025
      TEMPO 2910/2914 2SM BR BKN015
     FM291500 11008KT P6SM SCT025 BKN040
     FM291800 11011KT P6SM SCT050=

USA.gov is the U.S. government's official web portal to all federal, state and local government web resources and services.